X  Close Metar Aviation Weather Data     NZCH Christchurch International Airport
Temperature
17°C Temperature
9°C Dewpoint
59% Humidity



Wind
16 KM/H
10 MPH
4 M/S
9 KTS



190°
South
Current Conditions

Clear Clear
Pressure 1001.92 (hPa) - 29.59 (inHg)
Visibility 6.2 (mile) - 10 (km)
Airport
Airport-code NZCH

Location: Christchurch International Airport
Distance: 14 (km)

Metar:
NZCH 210400Z AUTO 19009KT 150V220 9999 NCD 17/09 Q1002 NOSIG

Time: 21-04-2021 4:00 pm NZST